createdAt,value
2023-03-23T00:00:19.586Z,10.92
2023-03-23T00:03:38.543Z,10.64
2023-03-23T00:06:55.619Z,10.24
2023-03-23T00:10:14.628Z,10.08
2023-03-23T00:13:31.598Z,9.92
2023-03-23T00:16:49.172Z,9.83
2023-03-23T00:20:06.952Z,9.64
2023-03-23T00:23:25.063Z,9.50
2023-03-23T00:26:48.276Z,9.36
2023-03-23T00:30:01.560Z,9.36
2023-03-23T00:33:19.041Z,9.18
2023-03-23T00:36:37.044Z,9.21
2023-03-23T00:39:55.606Z,9.09
2023-03-23T00:43:14.024Z,8.99
2023-03-23T00:46:31.622Z,8.95
2023-03-23T00:49:48.403Z,8.81
2023-03-23T00:53:05.446Z,8.70
2023-03-23T00:56:22.345Z,8.61
2023-03-23T00:59:39.438Z,8.48
2023-03-23T01:02:58.979Z,8.45
2023-03-23T01:06:20.523Z,8.37
2023-03-23T01:09:38.117Z,8.33
2023-03-23T01:12:55.643Z,8.23
2023-03-23T01:16:13.208Z,8.17
2023-03-23T01:19:30.134Z,8.05
2023-03-23T01:22:47.042Z,7.94
2023-03-23T01:26:03.286Z,7.91
2023-03-23T01:29:19.910Z,7.86
2023-03-23T01:32:36.351Z,7.85
2023-03-23T01:35:53.162Z,7.80
2023-03-23T01:39:10.763Z,7.69
2023-03-23T01:42:29.214Z,7.68
2023-03-23T01:45:48.551Z,7.65
2023-03-23T01:49:10.620Z,7.59
2023-03-23T01:52:31.814Z,7.52
2023-03-23T01:55:54.006Z,7.43
2023-03-23T01:59:10.292Z,7.43
2023-03-23T02:02:30.944Z,7.49
2023-03-23T02:05:50.068Z,7.48
2023-03-23T02:09:10.560Z,7.50
2023-03-23T02:12:27.958Z,7.45
2023-03-23T02:15:59.332Z,7.44
2023-03-23T02:19:56.152Z,7.28
2023-03-23T02:23:37.585Z,7.38
2023-03-23T02:27:02.536Z,7.37
2023-03-23T02:30:52.821Z,7.43
2023-03-23T02:34:13.650Z,7.39
2023-03-23T02:37:35.854Z,7.34
2023-03-23T02:40:57.218Z,7.32
2023-03-23T02:44:19.531Z,7.25
2023-03-23T02:47:36.351Z,7.33
2023-03-23T02:50:56.381Z,7.40
2023-03-23T02:54:16.713Z,7.53
2023-03-23T02:57:40.578Z,7.55
2023-03-23T03:00:55.486Z,7.58
2023-03-23T03:04:17.739Z,7.56
2023-03-23T03:08:05.799Z,7.51
2023-03-23T03:11:26.986Z,7.50
2023-03-23T03:14:48.189Z,7.50
2023-03-23T03:18:13.247Z,7.56
2023-03-23T03:21:34.079Z,7.65
2023-03-23T03:24:52.661Z,7.65
2023-03-23T03:28:10.853Z,7.63
2023-03-23T03:31:33.622Z,7.69
2023-03-23T03:34:52.128Z,7.72
2023-03-23T03:38:15.864Z,7.66
2023-03-23T03:41:33.102Z,7.61
2023-03-23T03:44:49.414Z,7.62
2023-03-23T03:48:06.920Z,7.69
2023-03-23T03:51:23.327Z,7.72
2023-03-23T03:54:39.713Z,7.67
2023-03-23T03:57:56.857Z,7.64
2023-03-23T04:01:23.613Z,7.55
2023-03-23T04:04:40.847Z,7.53
2023-03-23T04:08:09.401Z,7.52
2023-03-23T04:11:32.556Z,7.42
2023-03-23T04:14:40.587Z,7.37
2023-03-23T04:17:58.852Z,7.26
2023-03-23T04:21:16.177Z,7.18
2023-03-23T04:24:56.154Z,7.08
2023-03-23T04:28:01.546Z,7.07
2023-03-23T04:31:19.331Z,7.08
2023-03-23T04:34:38.534Z,6.98
2023-03-23T04:37:56.230Z,6.92
2023-03-23T04:41:13.041Z,7.00
2023-03-23T04:44:31.199Z,6.98
2023-03-23T04:47:54.219Z,6.92
2023-03-23T04:51:14.038Z,6.90
2023-03-23T04:54:31.590Z,6.96
2023-03-23T04:57:49.471Z,7.00
2023-03-23T05:01:24.195Z,7.05
2023-03-23T05:04:43.462Z,6.94
2023-03-23T05:08:04.279Z,6.88
2023-03-23T05:11:22.369Z,6.95
2023-03-23T05:14:38.808Z,7.01
2023-03-23T05:17:57.797Z,7.10
2023-03-23T05:21:15.518Z,7.19
2023-03-23T05:24:34.491Z,7.25
2023-03-23T05:27:55.005Z,7.38
2023-03-23T05:31:28.309Z,7.48
2023-03-23T05:34:45.219Z,7.60
2023-03-23T05:41:18.542Z,7.83
2023-03-23T05:44:35.673Z,7.95
2023-03-23T05:47:53.761Z,8.07
2023-03-23T05:51:11.781Z,8.22
2023-03-23T05:54:29.784Z,8.34
2023-03-23T05:57:46.659Z,8.53
2023-03-23T06:01:05.397Z,8.75
2023-03-23T06:04:22.916Z,8.98
2023-03-23T06:07:40.852Z,9.28
2023-03-23T06:10:57.352Z,9.50
2023-03-23T06:14:14.605Z,9.66
2023-03-23T06:17:30.952Z,9.99
2023-03-23T06:20:48.078Z,10.18
2023-03-23T06:24:06.764Z,10.48
2023-03-23T06:27:23.598Z,11.01
2023-03-23T06:30:40.276Z,11.44
2023-03-23T06:33:58.555Z,11.90
2023-03-23T06:37:14.998Z,12.33
2023-03-23T06:40:43.315Z,12.81
2023-03-23T06:43:59.878Z,13.16
2023-03-23T06:47:17.836Z,13.38
2023-03-23T06:50:38.955Z,14.23
2023-03-23T06:53:56.225Z,15.02
2023-03-23T06:57:14.210Z,15.56
2023-03-23T07:00:32.051Z,16.08
2023-03-23T07:03:48.510Z,16.22
2023-03-23T07:07:06.965Z,16.85
2023-03-23T07:10:25.769Z,17.30
2023-03-23T07:13:42.576Z,17.22
2023-03-23T07:16:59.873Z,17.37
2023-03-23T07:20:20.060Z,17.54
2023-03-23T07:23:37.817Z,17.36
2023-03-23T07:26:53.531Z,17.44
2023-03-23T07:30:10.417Z,17.50
2023-03-23T07:33:28.124Z,17.69
2023-03-23T07:36:45.958Z,17.77
2023-03-23T07:40:04.738Z,17.72
2023-03-23T07:43:22.198Z,17.84
2023-03-23T07:46:52.992Z,18.03
2023-03-23T07:50:12.099Z,17.80
2023-03-23T07:53:30.627Z,17.22
2023-03-23T07:56:50.583Z,17.15
2023-03-23T08:00:14.383Z,17.49
2023-03-23T08:03:33.971Z,17.56
2023-03-23T08:07:13.081Z,17.57
2023-03-23T08:10:35.864Z,17.72
2023-03-23T08:13:58.309Z,17.83
2023-03-23T08:17:26.255Z,17.44
2023-03-23T08:21:01.512Z,17.35
2023-03-23T08:24:41.493Z,16.96
2023-03-23T08:28:11.162Z,17.20
2023-03-23T08:31:50.505Z,17.00
2023-03-23T09:09:37.264Z,16.58
2023-03-23T09:12:56.242Z,16.64
2023-03-23T09:16:16.459Z,16.65
2023-03-23T09:19:32.850Z,16.75
2023-03-23T09:22:52.116Z,16.87
2023-03-23T09:26:11.496Z,17.12
2023-03-23T09:29:28.935Z,17.31
2023-03-23T09:32:47.142Z,17.39
2023-03-23T09:36:04.219Z,17.48
2023-03-23T09:39:22.809Z,17.43
2023-03-23T09:43:06.060Z,17.56
2023-03-23T09:46:42.130Z,17.67
2023-03-23T09:50:04.253Z,17.72
2023-03-23T09:53:26.521Z,17.85
2023-03-23T09:56:45.575Z,18.03
2023-03-23T10:00:08.456Z,18.17
2023-03-23T10:03:35.348Z,18.32
2023-03-23T10:06:52.846Z,18.77
2023-03-23T10:10:15.601Z,19.16
2023-03-23T10:13:43.107Z,19.37
2023-03-23T10:17:07.479Z,19.34
2023-03-23T10:20:38.949Z,19.57
2023-03-23T10:24:10.886Z,19.77
2023-03-23T10:27:38.147Z,20.10
2023-03-23T10:30:58.895Z,20.22
2023-03-23T10:34:21.210Z,20.61
2023-03-23T10:37:42.764Z,20.92
2023-03-23T10:41:03.608Z,20.69
2023-03-23T10:44:27.425Z,20.92
2023-03-23T10:47:47.855Z,21.22
2023-03-23T10:51:10.213Z,21.39
2023-03-23T10:54:38.430Z,21.39
2023-03-23T10:58:08.053Z,21.46
2023-03-23T11:01:26.954Z,21.29
2023-03-23T11:04:43.552Z,21.25
2023-03-23T11:08:04.095Z,21.32
2023-03-23T11:11:24.858Z,21.13
2023-03-23T11:14:44.348Z,20.90
2023-03-23T11:18:12.171Z,20.91
2023-03-23T11:21:30.373Z,20.79
2023-03-23T11:24:53.422Z,20.69
2023-03-23T11:28:11.425Z,20.95
2023-03-23T11:31:34.121Z,20.70
2023-03-23T11:34:57.845Z,20.62
2023-03-23T11:38:18.691Z,20.49
2023-03-23T11:41:38.958Z,20.49
2023-03-23T11:44:55.858Z,20.54
2023-03-23T11:48:22.226Z,20.73
2023-03-23T11:51:46.286Z,20.69
2023-03-23T11:55:08.776Z,20.61
2023-03-23T11:58:29.576Z,20.61
2023-03-23T12:02:16.858Z,20.50
2023-03-23T12:05:49.759Z,20.40
2023-03-23T12:09:18.232Z,20.41
2023-03-23T12:12:41.106Z,20.21
2023-03-23T12:16:03.761Z,20.13
2023-03-23T12:19:28.395Z,19.96
2023-03-23T12:23:02.903Z,19.95
2023-03-23T12:26:28.159Z,19.81
2023-03-23T12:30:15.697Z,19.79
2023-03-23T12:33:46.137Z,19.72
2023-03-23T12:37:14.938Z,19.64
2023-03-23T12:40:51.779Z,19.48
2023-03-23T12:44:14.865Z,19.37
2023-03-23T12:47:46.125Z,19.32
2023-03-23T12:51:19.987Z,19.27
2023-03-23T12:54:41.549Z,19.17
2023-03-23T12:58:03.581Z,19.16
2023-03-23T13:01:25.189Z,19.11
2023-03-23T13:04:49.589Z,19.12
2023-03-23T13:08:10.663Z,19.00
2023-03-23T13:11:32.217Z,18.98
2023-03-23T13:14:55.982Z,18.90
2023-03-23T13:18:18.660Z,18.91
2023-03-23T13:21:39.637Z,18.83
2023-03-23T13:25:02.634Z,18.83
2023-03-23T13:28:30.489Z,18.78
2023-03-23T13:31:51.800Z,18.71
2023-03-23T13:35:12.150Z,18.70
2023-03-23T13:38:34.842Z,18.59
2023-03-23T13:42:11.233Z,18.54
2023-03-23T13:45:46.047Z,18.54
2023-03-23T13:49:27.867Z,18.59
2023-03-23T13:53:04.929Z,18.52
2023-03-23T13:56:30.828Z,18.50
2023-03-23T14:00:04.203Z,18.47
2023-03-23T14:03:30.827Z,18.47
2023-03-23T14:06:50.128Z,18.45
2023-03-23T14:10:21.954Z,18.49
2023-03-23T14:13:48.589Z,18.46
2023-03-23T14:17:23.942Z,18.52
2023-03-23T14:20:45.709Z,18.52
2023-03-23T14:24:02.284Z,18.49
2023-03-23T14:27:23.890Z,18.42
2023-03-23T14:30:45.473Z,18.43
2023-03-23T14:34:07.890Z,18.41
2023-03-23T14:37:25.434Z,18.41
2023-03-23T14:40:43.986Z,18.40
2023-03-23T14:44:01.648Z,18.38
2023-03-23T14:47:27.865Z,18.35
2023-03-23T14:50:49.970Z,18.30
2023-03-23T14:54:07.115Z,18.35
2023-03-23T14:57:26.267Z,18.35
2023-03-23T15:00:46.915Z,18.38
2023-03-23T15:04:09.450Z,18.42
2023-03-23T15:07:27.336Z,18.40
2023-03-23T15:10:43.846Z,18.35
2023-03-23T15:14:05.821Z,18.28
2023-03-23T15:17:29.519Z,18.23
2023-03-23T15:20:58.310Z,18.20
2023-03-23T15:24:33.140Z,18.19
2023-03-23T15:27:57.708Z,18.19
2023-03-23T15:31:15.690Z,18.18
2023-03-23T15:34:40.434Z,18.18
2023-03-23T15:37:59.843Z,18.15
2023-03-23T15:41:29.778Z,18.12
2023-03-23T15:44:46.256Z,18.05
2023-03-23T15:48:04.455Z,17.99
2023-03-23T15:51:21.325Z,18.00
2023-03-23T15:54:40.006Z,17.96
2023-03-23T15:57:56.540Z,17.97
2023-03-23T16:01:19.018Z,17.97
2023-03-23T16:04:35.604Z,17.93
2023-03-23T16:07:52.805Z,17.93
2023-03-23T16:11:09.198Z,17.92
2023-03-23T16:14:25.560Z,17.91
2023-03-23T16:17:41.865Z,17.87
2023-03-23T16:20:58.790Z,17.86
2023-03-23T16:24:17.393Z,17.86
2023-03-23T16:27:36.057Z,17.84
2023-03-23T16:30:53.173Z,17.82
2023-03-23T16:34:09.733Z,17.82
2023-03-23T16:37:26.172Z,17.84
2023-03-23T16:40:43.199Z,17.85
2023-03-23T16:43:59.926Z,17.86
2023-03-23T16:47:16.545Z,17.85
2023-03-23T16:50:33.139Z,17.84
2023-03-23T16:53:49.842Z,17.81
2023-03-23T16:57:07.472Z,17.79
2023-03-23T17:00:29.212Z,17.74
2023-03-23T17:03:50.737Z,17.74
2023-03-23T17:07:09.637Z,17.70
2023-03-23T17:10:27.900Z,17.68
2023-03-23T17:13:44.460Z,17.64
2023-03-23T17:17:06.009Z,17.63
2023-03-23T17:20:25.424Z,17.61
2023-03-23T17:23:53.513Z,17.58
2023-03-23T17:27:10.869Z,17.53
2023-03-23T17:30:29.266Z,17.52
2023-03-23T17:33:46.841Z,17.50
2023-03-23T17:37:03.481Z,17.49
2023-03-23T17:40:22.624Z,17.46
2023-03-23T17:43:41.102Z,17.42
2023-03-23T17:46:57.662Z,17.40
2023-03-23T17:50:16.434Z,17.33
2023-03-23T17:53:33.077Z,17.32
2023-03-23T17:56:51.012Z,17.27
2023-03-23T18:00:11.113Z,17.23
2023-03-23T18:03:29.073Z,17.17
2023-03-23T18:06:49.859Z,17.03
2023-03-23T18:10:11.827Z,16.93
2023-03-23T18:13:28.959Z,16.86
2023-03-23T18:16:46.143Z,16.75
2023-03-23T18:20:03.034Z,16.62
2023-03-23T18:23:19.758Z,16.52
2023-03-23T18:26:36.801Z,16.38
2023-03-23T18:29:53.968Z,16.31
2023-03-23T18:33:10.556Z,16.21
2023-03-23T18:36:40.113Z,16.06
2023-03-23T18:40:31.703Z,15.80
2023-03-23T18:43:48.466Z,15.66
2023-03-23T18:47:05.103Z,15.57
2023-03-23T18:50:21.914Z,15.48
2023-03-23T18:53:40.117Z,15.34
2023-03-23T18:57:00.245Z,15.20
2023-03-23T19:00:17.572Z,15.12
2023-03-23T19:03:34.854Z,15.06
2023-03-23T19:06:55.875Z,14.94
2023-03-23T19:10:25.513Z,14.92
2023-03-23T19:14:06.519Z,14.89
2023-03-23T19:17:53.674Z,14.89
2023-03-23T19:21:31.388Z,14.93
2023-03-23T19:25:01.355Z,14.86
2023-03-23T19:29:05.524Z,14.82
2023-03-23T19:31:53.709Z,14.77
2023-03-23T19:35:10.572Z,14.82
2023-03-23T19:38:28.051Z,14.89
2023-03-23T19:41:45.917Z,15.04
2023-03-23T19:45:03.436Z,15.20
2023-03-23T19:48:20.771Z,15.31
2023-03-23T19:51:38.059Z,15.56
2023-03-23T19:54:54.945Z,15.72
2023-03-23T19:58:11.373Z,15.86
2023-03-23T20:01:29.218Z,15.96
2023-03-23T20:04:47.827Z,16.05
2023-03-23T20:08:04.998Z,16.09
2023-03-23T20:11:24.916Z,16.15
2023-03-23T20:14:43.470Z,16.16
2023-03-23T20:18:00.334Z,16.15
2023-03-23T20:21:20.402Z,16.18
2023-03-23T20:24:38.357Z,16.21
2023-03-23T20:27:55.383Z,16.20
2023-03-23T20:31:18.875Z,16.21
2023-03-23T20:34:34.284Z,16.21
2023-03-23T20:37:56.053Z,16.24
2023-03-23T20:41:19.193Z,16.23
2023-03-23T20:44:37.099Z,16.24
2023-03-23T20:47:55.250Z,16.25
2023-03-23T20:51:14.323Z,16.26
2023-03-23T20:54:31.081Z,16.28
2023-03-23T20:57:47.531Z,16.29
2023-03-23T21:01:05.633Z,16.30
2023-03-23T21:04:28.117Z,16.32
2023-03-23T21:07:44.811Z,16.32
2023-03-23T21:11:02.056Z,16.33
2023-03-23T21:14:19.335Z,16.35
2023-03-23T21:17:35.883Z,16.36
2023-03-23T21:20:52.905Z,16.37
2023-03-23T21:24:09.908Z,16.36
2023-03-23T21:27:26.725Z,16.36
2023-03-23T21:30:45.237Z,16.34
2023-03-23T21:34:01.852Z,16.33
2023-03-23T21:37:18.683Z,16.36
2023-03-23T21:40:36.583Z,16.35
2023-03-23T21:43:53.145Z,16.35
2023-03-23T21:47:10.139Z,16.39
2023-03-23T21:50:26.799Z,16.38
2023-03-23T21:53:44.791Z,16.39
2023-03-23T21:57:01.349Z,16.38
2023-03-23T22:00:21.226Z,16.37
2023-03-23T22:03:39.953Z,16.37
2023-03-23T22:06:56.872Z,16.32
2023-03-23T22:10:15.466Z,16.30
2023-03-23T22:13:32.550Z,16.27
2023-03-23T22:16:49.047Z,16.24
2023-03-23T22:20:06.539Z,16.20
2023-03-23T22:23:22.917Z,16.17
2023-03-23T22:26:40.312Z,16.11
2023-03-23T22:29:57.490Z,16.11
2023-03-23T22:33:14.030Z,16.12
2023-03-23T22:36:32.079Z,16.13
2023-03-23T22:39:49.964Z,16.13
2023-03-23T22:43:06.457Z,16.15
2023-03-23T22:46:23.984Z,16.16
2023-03-23T22:49:40.487Z,16.16
2023-03-23T22:52:57.027Z,16.18
2023-03-23T22:56:16.347Z,16.17
2023-03-23T22:59:30.662Z,16.20
2023-03-23T23:02:47.173Z,16.19
2023-03-23T23:06:05.635Z,16.18
2023-03-23T23:09:23.221Z,16.16
2023-03-23T23:12:42.310Z,16.16
2023-03-23T23:16:02.557Z,16.15
2023-03-23T23:19:19.001Z,16.15
2023-03-23T23:22:35.411Z,16.13
2023-03-23T23:25:52.370Z,16.13
2023-03-23T23:29:09.002Z,16.11
2023-03-23T23:32:26.579Z,16.07
2023-03-23T23:35:43.383Z,16.05
2023-03-23T23:38:59.874Z,16.04
2023-03-23T23:42:16.562Z,15.99
2023-03-23T23:45:34.863Z,15.96
2023-03-23T23:48:52.152Z,15.92
2023-03-23T23:52:09.570Z,15.90
2023-03-23T23:55:27.794Z,15.87
2023-03-23T23:58:41.920Z,15.85
